Weather at Alamogordo White Sands Regional Airport

Public forecast

Using degrees Fahrenheit for public forecast. Weather courtesy of forecast.io.

Current aviation weather report (METAR) for Alamogordo White Sands Regional Airport

Report is more than 2 hours old.

2024/05/29 14:35 (retrieved 3 hours ago)

KALM 291435Z AUTO 32010KT 10SM CLR 23/09 A3013 RMK AO2

Closest aviation forecast (TAF) to Alamogordo White Sands Regional Airport

Forecast is more than 6 hours old.

Closest forecast is Holloman Air Force Base, 6.0 nm (11.2 km) W.

2024/05/29 09:06 (retrieved 8 hours ago)

TAF KHMN 290900Z 2909/3015 VRB05KT 9999 SCT200 QNH3003INS BECMG 2918/2919 23010G20KT 9999 FEW060 BKN200 QNH2992INS BECMG 3000/3001 VRB05KT 9999 FEW200 QNH2991INS TX35/2922Z TN14/2912Z